createdAt,value
2022-08-20T00:02:15.141Z,97533.81
2022-08-20T00:04:43.054Z,97541.97
2022-08-20T00:07:11.280Z,97531.50
2022-08-20T00:09:39.107Z,97533.41
2022-08-20T00:12:08.209Z,97541.31
2022-08-20T00:14:36.959Z,97539.16
2022-08-20T00:17:06.066Z,97536.69
2022-08-20T00:19:34.592Z,97536.59
2022-08-20T00:22:02.435Z,97533.81
2022-08-20T00:24:30.286Z,97537.44
2022-08-20T00:26:58.057Z,97536.31
2022-08-20T00:29:25.850Z,97539.03
2022-08-20T00:31:53.654Z,97534.50
2022-08-20T00:34:21.589Z,97542.31
2022-08-20T00:36:49.435Z,97542.72
2022-08-20T00:39:17.249Z,97544.19
2022-08-20T00:41:46.006Z,97544.59
2022-08-20T00:44:22.617Z,97546.84
2022-08-20T00:46:51.967Z,97542.03
2022-08-20T00:49:31.876Z,97538.28
2022-08-20T00:52:08.678Z,97542.88
2022-08-20T00:54:53.374Z,97545.75
2022-08-20T00:58:01.253Z,97550.44
2022-08-20T01:00:37.880Z,97557.28
2022-08-20T01:03:09.998Z,97557.28
2022-08-20T01:05:48.520Z,97561.88
2022-08-20T01:08:21.396Z,97562.63
2022-08-20T01:10:53.822Z,97559.09
2022-08-20T01:13:24.113Z,97558.34
2022-08-20T01:15:56.147Z,97563.16
2022-08-20T01:18:27.711Z,97555.03
2022-08-20T01:21:00.598Z,97566.75
2022-08-20T01:24:12.136Z,97574.72
2022-08-20T01:26:45.859Z,97570.13
2022-08-20T01:29:29.345Z,97577.44
2022-08-20T01:32:01.517Z,97580.91
2022-08-20T01:34:29.520Z,97576.53
2022-08-20T01:36:58.642Z,97573.25
2022-08-20T01:39:32.111Z,97589.13
2022-08-20T01:42:22.948Z,97582.88
2022-08-20T01:44:50.732Z,97587.66
2022-08-20T01:47:25.166Z,97582.41
2022-08-20T01:50:06.142Z,97581.72
2022-08-20T01:53:09.959Z,97589.19
2022-08-20T01:55:38.713Z,97591.84
2022-08-20T01:58:06.576Z,97591.22
2022-08-20T02:00:35.724Z,97587.66
2022-08-20T02:03:03.885Z,97588.06
2022-08-20T02:05:33.942Z,97590.78
2022-08-20T02:08:02.419Z,97589.28
2022-08-20T02:10:31.900Z,97590.59
2022-08-20T02:13:01.590Z,97592.09
2022-08-20T02:15:37.133Z,97593.88
2022-08-20T02:18:14.858Z,97597.94
2022-08-20T02:20:44.596Z,97598.50
2022-08-20T02:23:13.479Z,97594.69
2022-08-20T02:25:45.124Z,97593.06
2022-08-20T02:28:16.635Z,97595.53
2022-08-20T02:30:49.317Z,97595.03
2022-08-20T02:33:24.306Z,97594.56
2022-08-20T02:35:56.424Z,97594.56
2022-08-20T02:38:25.389Z,97608.38
2022-08-20T02:40:53.441Z,97603.53
2022-08-20T02:43:21.615Z,97607.31
2022-08-20T02:45:49.465Z,97601.97
2022-08-20T02:48:21.740Z,97607.41
2022-08-20T02:51:01.412Z,97606.94
2022-08-20T02:53:35.550Z,97607.84
2022-08-20T02:56:08.673Z,97601.66
2022-08-20T02:58:37.868Z,97601.44
2022-08-20T03:01:12.601Z,97603.91
2022-08-20T03:03:42.356Z,97599.63
2022-08-20T03:06:13.151Z,97596.63
2022-08-20T03:08:41.308Z,97600.19
2022-08-20T03:11:09.233Z,97594.66
2022-08-20T03:13:37.649Z,97595.25
2022-08-20T03:16:07.520Z,97586.75
2022-08-20T03:18:40.530Z,97589.47
2022-08-20T03:21:09.893Z,97587.25
2022-08-20T03:23:40.335Z,97586.13
2022-08-20T03:26:11.814Z,97585.25
2022-08-20T03:28:41.456Z,97587.91
2022-08-20T03:31:10.233Z,97584.75
2022-08-20T03:33:48.864Z,97580.41
2022-08-20T03:36:27.859Z,97582.38
2022-08-20T03:38:59.428Z,97586.41
2022-08-20T03:41:29.118Z,97583.94
2022-08-20T03:43:57.450Z,97589.19
2022-08-20T03:46:26.240Z,97585.97
2022-08-20T03:49:00.321Z,97581.88
2022-08-20T03:51:30.709Z,97588.69
2022-08-20T03:53:59.077Z,97586.91
2022-08-20T03:56:27.503Z,97582.56
2022-08-20T03:58:55.918Z,97590.03
2022-08-20T04:01:45.438Z,97588.63
2022-08-20T04:04:12.146Z,97593.47
2022-08-20T04:06:42.414Z,97587.13
2022-08-20T04:09:12.331Z,97586.56
2022-08-20T04:11:42.361Z,97590.50
2022-08-20T04:14:16.636Z,97595.44
2022-08-20T04:16:47.119Z,97602.03
2022-08-20T04:19:17.182Z,97596.50
2022-08-20T04:21:48.669Z,97595.53
2022-08-20T04:24:31.127Z,97603.66
2022-08-20T04:27:02.780Z,97598.22
2022-08-20T04:29:35.349Z,97604.41
2022-08-20T04:32:06.720Z,97599.63
2022-08-20T04:34:35.414Z,97604.31
2022-08-20T04:37:04.565Z,97613.44
2022-08-20T04:39:33.352Z,97615.44
2022-08-20T04:42:01.196Z,97612.44
2022-08-20T04:44:28.977Z,97612.72
2022-08-20T04:46:56.907Z,97619.78
2022-08-20T04:49:26.441Z,97612.78
2022-08-20T04:51:55.663Z,97612.56
2022-08-20T04:54:23.381Z,97613.06
2022-08-20T04:56:51.425Z,97613.38
2022-08-20T04:59:19.566Z,97618.09
2022-08-20T05:01:47.367Z,97616.94
2022-08-20T05:04:15.118Z,97624.50
2022-08-20T05:06:42.985Z,97629.66
2022-08-20T05:09:10.803Z,97623.53
2022-08-20T05:11:38.571Z,97627.97
2022-08-20T05:14:09.535Z,97628.22
2022-08-20T05:16:40.516Z,97634.81
2022-08-20T05:19:13.440Z,97633.88
2022-08-20T05:21:41.739Z,97635.44
2022-08-20T05:24:10.538Z,97633.53
2022-08-20T05:26:38.452Z,97635.53
2022-08-20T05:29:07.579Z,97642.53
2022-08-20T05:31:36.170Z,97643.75
2022-08-20T05:34:12.052Z,97649.59
2022-08-20T05:36:44.145Z,97655.03
2022-08-20T05:39:13.466Z,97645.50
2022-08-20T05:41:41.554Z,97656.47
2022-08-20T05:44:13.340Z,97647.00
2022-08-20T05:46:44.756Z,97652.66
2022-08-20T05:49:17.025Z,97648.38
2022-08-20T05:51:44.928Z,97646.53
2022-08-20T05:54:14.197Z,97649.47
2022-08-20T05:56:42.699Z,97652.75
2022-08-20T05:59:12.637Z,97647.22
2022-08-20T06:01:42.216Z,97651.78
2022-08-20T06:04:31.874Z,97659.06
2022-08-20T06:07:06.128Z,97654.78
2022-08-20T06:09:35.133Z,97652.16
2022-08-20T06:12:06.646Z,97654.19
2022-08-20T06:14:35.440Z,97651.13
2022-08-20T06:17:17.085Z,97654.53
2022-08-20T06:19:47.205Z,97658.16
2022-08-20T06:22:19.175Z,97661.59
2022-08-20T06:24:52.753Z,97659.91
2022-08-20T06:27:21.349Z,97661.28
2022-08-20T06:29:50.973Z,97667.09
2022-08-20T06:32:28.882Z,97663.91
2022-08-20T06:35:03.687Z,97664.53
2022-08-20T06:37:33.794Z,97673.44
2022-08-20T06:40:24.913Z,97668.94
2022-08-20T06:42:53.206Z,97673.59
2022-08-20T06:45:25.407Z,97673.44
2022-08-20T06:48:01.920Z,97675.97
2022-08-20T06:50:44.461Z,97672.88
2022-08-20T06:53:18.992Z,97675.34
2022-08-20T06:55:52.967Z,97682.41
2022-08-20T06:58:37.513Z,97678.88
2022-08-20T07:01:12.392Z,97672.16
2022-08-20T07:03:55.472Z,97671.41
2022-08-20T07:06:25.951Z,97674.34
2022-08-20T07:08:55.853Z,97674.75
2022-08-20T07:11:28.043Z,97677.72
2022-08-20T07:13:58.393Z,97686.13
2022-08-20T07:16:27.262Z,97678.53
2022-08-20T07:18:55.250Z,97681.94
2022-08-20T07:21:23.236Z,97676.56
2022-08-20T07:23:51.072Z,97676.50
2022-08-20T07:26:19.403Z,97679.31
2022-08-20T07:28:47.372Z,97690.84
2022-08-20T07:31:34.900Z,97687.69
2022-08-20T07:34:04.307Z,97688.94
2022-08-20T07:36:33.427Z,97687.13
2022-08-20T07:39:05.920Z,97684.97
2022-08-20T07:41:34.364Z,97691.25
2022-08-20T07:44:02.733Z,97692.97
2022-08-20T07:46:31.897Z,97703.78
2022-08-20T07:49:00.127Z,97704.19
2022-08-20T07:51:28.600Z,97705.00
2022-08-20T07:53:58.399Z,97714.81
2022-08-20T07:56:26.620Z,97707.47
2022-08-20T07:58:59.206Z,97708.03
2022-08-20T08:01:30.990Z,97710.88
2022-08-20T08:04:01.383Z,97716.41
2022-08-20T08:06:31.571Z,97702.38
2022-08-20T08:09:10.169Z,97715.25
2022-08-20T08:11:46.363Z,97704.53
2022-08-20T08:14:23.588Z,97715.06
2022-08-20T08:16:57.374Z,97711.41
2022-08-20T08:19:30.937Z,97717.63
2022-08-20T08:21:58.823Z,97711.19
2022-08-20T08:24:28.452Z,97708.06
2022-08-20T08:26:56.584Z,97699.88
2022-08-20T08:29:24.556Z,97708.38
2022-08-20T08:31:52.316Z,97712.50
2022-08-20T08:34:20.196Z,97708.97
2022-08-20T08:36:48.021Z,97705.00
2022-08-20T08:39:16.260Z,97709.03
2022-08-20T08:41:51.636Z,97701.00
2022-08-20T08:44:30.405Z,97698.84
2022-08-20T08:47:18.735Z,97706.25
2022-08-20T08:49:47.864Z,97705.56
2022-08-20T08:52:33.503Z,97708.09
2022-08-20T08:55:06.463Z,97713.44
2022-08-20T08:57:34.398Z,97710.44
2022-08-20T09:00:12.045Z,97718.00
2022-08-20T09:02:42.600Z,97722.63
2022-08-20T09:05:16.859Z,97724.38
2022-08-20T09:07:51.621Z,97716.28
2022-08-20T09:10:23.625Z,97719.34
2022-08-20T09:12:52.490Z,97709.44
2022-08-20T09:15:21.375Z,97707.25
2022-08-20T09:17:49.436Z,97705.72
2022-08-20T09:20:18.345Z,97721.84
2022-08-20T09:22:46.177Z,97709.94
2022-08-20T09:25:16.313Z,97714.44
2022-08-20T09:27:44.111Z,97715.00
2022-08-20T09:30:16.026Z,97716.44
2022-08-20T09:32:46.341Z,97718.06
2022-08-20T09:35:14.106Z,97715.28
2022-08-20T09:37:42.031Z,97710.56
2022-08-20T09:40:10.970Z,97713.13
2022-08-20T09:42:41.643Z,97708.63
2022-08-20T09:45:11.653Z,97710.38
2022-08-20T09:47:54.829Z,97705.97
2022-08-20T09:50:24.339Z,97705.72
2022-08-20T09:52:54.322Z,97708.22
2022-08-20T09:55:33.837Z,97708.44
2022-08-20T09:58:41.406Z,97698.91
2022-08-20T10:01:15.161Z,97709.34
2022-08-20T10:03:45.341Z,97724.78
2022-08-20T10:06:14.859Z,97712.63
2022-08-20T10:08:43.910Z,97718.38
2022-08-20T10:11:12.229Z,97725.28
2022-08-20T10:13:40.115Z,97724.50
2022-08-20T10:16:07.892Z,97732.22
2022-08-20T10:18:36.875Z,97727.91
2022-08-20T10:21:11.269Z,97720.88
2022-08-20T10:23:39.175Z,97721.59
2022-08-20T10:26:11.810Z,97729.56
2022-08-20T10:28:39.761Z,97720.41
2022-08-20T10:31:09.701Z,97731.72
2022-08-20T10:33:39.669Z,97710.22
2022-08-20T10:36:16.065Z,97719.16
2022-08-20T10:38:44.926Z,97711.88
2022-08-20T10:41:12.773Z,97706.06
2022-08-20T10:43:40.619Z,97709.25
2022-08-20T10:46:09.237Z,97700.22
2022-08-20T10:48:37.498Z,97710.72
2022-08-20T10:51:05.895Z,97705.06
2022-08-20T10:53:34.088Z,97703.06
2022-08-20T10:56:02.182Z,97692.84
2022-08-20T10:58:39.540Z,97704.28
2022-08-20T11:01:08.232Z,97694.22
2022-08-20T11:03:36.319Z,97697.06
2022-08-20T11:06:04.302Z,97696.25
2022-08-20T11:08:34.191Z,97701.66
2022-08-20T11:11:05.443Z,97702.22
2022-08-20T11:13:34.892Z,97700.00
2022-08-20T11:16:04.333Z,97705.78
2022-08-20T11:18:33.122Z,97701.56
2022-08-20T11:21:01.555Z,97703.56
2022-08-20T11:23:29.393Z,97701.31
2022-08-20T11:25:58.839Z,97700.59
2022-08-20T11:28:31.693Z,97706.72
2022-08-20T11:31:01.520Z,97703.56
2022-08-20T11:33:29.603Z,97716.94
2022-08-20T11:35:57.560Z,97709.66
2022-08-20T11:38:27.030Z,97704.06
2022-08-20T11:40:54.823Z,97703.09
2022-08-20T11:43:22.787Z,97703.09
2022-08-20T11:45:55.326Z,97697.41
2022-08-20T11:48:23.828Z,97692.50
2022-08-20T11:50:51.764Z,97687.47
2022-08-20T11:53:19.602Z,97684.63
2022-08-20T11:55:48.043Z,97689.88
2022-08-20T11:58:17.470Z,97692.34
2022-08-20T12:00:45.858Z,97696.50
2022-08-20T12:03:13.690Z,97687.38
2022-08-20T12:05:45.190Z,97692.53
2022-08-20T12:08:27.568Z,97689.69
2022-08-20T12:11:02.300Z,97691.41
2022-08-20T12:13:48.996Z,97686.81
2022-08-20T12:16:20.310Z,97704.16
2022-08-20T12:18:48.970Z,97702.63
2022-08-20T12:21:17.636Z,97707.75
2022-08-20T12:23:45.624Z,97711.34
2022-08-20T12:26:13.608Z,97713.75
2022-08-20T12:28:41.366Z,97711.31
2022-08-20T12:31:09.208Z,97718.72
2022-08-20T12:33:37.105Z,97715.84
2022-08-20T12:36:05.270Z,97712.03
2022-08-20T12:38:33.119Z,97705.66
2022-08-20T12:41:01.323Z,97706.88
2022-08-20T12:43:29.086Z,97700.03
2022-08-20T12:45:56.925Z,97701.72
2022-08-20T12:48:24.956Z,97706.69
2022-08-20T12:50:52.926Z,97699.28
2022-08-20T12:53:20.871Z,97693.78
2022-08-20T12:55:48.664Z,97701.22
2022-08-20T12:58:16.503Z,97693.97
2022-08-20T13:00:50.677Z,97691.16
2022-08-20T13:03:21.013Z,97699.78
2022-08-20T13:05:49.956Z,97693.38
2022-08-20T13:08:19.263Z,97700.22
2022-08-20T13:10:47.710Z,97696.09
2022-08-20T13:13:20.373Z,97692.69
2022-08-20T13:15:50.945Z,97691.84
2022-08-20T13:18:19.944Z,97677.22
2022-08-20T13:20:48.450Z,97670.47
2022-08-20T13:23:16.710Z,97671.88
2022-08-20T13:25:44.543Z,97683.84
2022-08-20T13:28:12.364Z,97678.75
2022-08-20T13:30:41.567Z,97675.94
2022-08-20T13:33:09.736Z,97658.47
2022-08-20T13:35:37.834Z,97669.69
2022-08-20T13:38:05.618Z,97665.94
2022-08-20T13:40:33.565Z,97664.84
2022-08-20T13:43:06.587Z,97659.63
2022-08-20T13:45:38.969Z,97663.19
2022-08-20T13:48:14.608Z,97660.72
2022-08-20T13:50:46.753Z,97662.94
2022-08-20T13:53:16.289Z,97662.34
2022-08-20T13:55:45.209Z,97658.81
2022-08-20T13:58:13.267Z,97656.34
2022-08-20T14:00:41.111Z,97663.19
2022-08-20T14:03:08.876Z,97662.63
2022-08-20T14:05:38.184Z,97654.66
2022-08-20T14:08:23.116Z,97653.28
2022-08-20T14:10:51.915Z,97659.06
2022-08-20T14:13:24.745Z,97662.34
2022-08-20T14:15:53.307Z,97656.78
2022-08-20T14:18:21.080Z,97649.09
2022-08-20T14:20:49.420Z,97655.00
2022-08-20T14:23:17.385Z,97650.97
2022-08-20T14:25:47.850Z,97641.66
2022-08-20T14:28:24.286Z,97659.41
2022-08-20T14:30:53.719Z,97662.84
2022-08-20T14:33:23.849Z,97645.41
2022-08-20T14:35:52.288Z,97638.81
2022-08-20T14:38:20.147Z,97649.19
2022-08-20T14:40:50.205Z,97641.56
2022-08-20T14:43:18.543Z,97645.19
2022-08-20T14:45:46.353Z,97641.00
2022-08-20T14:48:15.053Z,97636.78
2022-08-20T14:50:43.367Z,97634.56
2022-08-20T14:53:11.181Z,97642.97
2022-08-20T14:55:39.255Z,97639.19
2022-08-20T14:58:12.830Z,97632.91
2022-08-20T15:00:42.285Z,97631.66
2022-08-20T15:03:10.526Z,97631.06
2022-08-20T15:05:39.208Z,97634.59
2022-08-20T15:08:10.814Z,97625.44
2022-08-20T15:10:39.885Z,97626.81
2022-08-20T15:13:08.610Z,97619.56
2022-08-20T15:15:36.916Z,97623.22
2022-08-20T15:18:04.748Z,97622.44
2022-08-20T15:20:34.992Z,97616.91
2022-08-20T15:23:04.509Z,97615.69
2022-08-20T15:25:36.453Z,97614.69
2022-08-20T15:28:09.042Z,97610.38
2022-08-20T15:30:41.052Z,97613.13
2022-08-20T15:33:10.588Z,97606.88
2022-08-20T15:35:38.612Z,97605.78
2022-08-20T15:38:06.691Z,97614.16
2022-08-20T15:40:34.665Z,97608.66
2022-08-20T15:43:04.770Z,97612.84
2022-08-20T15:45:34.273Z,97606.00
2022-08-20T15:48:08.698Z,97610.97
2022-08-20T15:51:00.551Z,97611.19
2022-08-20T15:53:31.183Z,97604.66
2022-08-20T15:56:29.928Z,97608.22
2022-08-20T15:59:29.575Z,97615.91
2022-08-20T16:02:26.038Z,97613.38
2022-08-20T16:05:12.699Z,97613.13
2022-08-20T16:07:46.767Z,97618.25
2022-08-20T16:10:30.457Z,97626.41
2022-08-20T16:13:02.316Z,97621.91
2022-08-20T16:15:35.796Z,97625.19
2022-08-20T16:18:16.543Z,97630.22
2022-08-20T16:20:48.943Z,97625.94
2022-08-20T16:23:20.253Z,97626.59
2022-08-20T16:26:08.792Z,97630.63
2022-08-20T16:29:11.531Z,97631.56
2022-08-20T16:32:03.570Z,97634.88
2022-08-20T16:34:51.733Z,97630.59
2022-08-20T16:37:51.453Z,97627.63
2022-08-20T16:40:32.816Z,97631.47
2022-08-20T16:43:05.893Z,97635.69
2022-08-20T16:45:36.251Z,97634.00
2022-08-20T16:48:07.288Z,97633.25
2022-08-20T16:51:06.778Z,97632.72
2022-08-20T16:53:35.655Z,97631.94
2022-08-20T16:56:05.392Z,97636.06
2022-08-20T16:58:33.190Z,97637.97
2022-08-20T17:01:11.510Z,97637.97
2022-08-20T17:03:49.846Z,97644.03
2022-08-20T17:06:46.841Z,97635.84
2022-08-20T17:09:43.532Z,97639.41
2022-08-20T17:12:24.193Z,97629.28
2022-08-20T17:14:58.489Z,97633.38
2022-08-20T17:17:36.208Z,97639.41
2022-08-20T17:20:20.050Z,97639.66
2022-08-20T17:23:11.901Z,97636.66
2022-08-20T17:25:39.767Z,97629.50
2022-08-20T17:28:20.640Z,97637.19
2022-08-20T17:30:49.110Z,97642.66
2022-08-20T17:33:28.881Z,97643.47
2022-08-20T17:36:17.548Z,97648.09
2022-08-20T17:38:52.338Z,97642.38
2022-08-20T17:41:32.575Z,97640.44
2022-08-20T17:44:17.806Z,97644.56
2022-08-20T17:46:48.950Z,97644.81
2022-08-20T17:49:35.005Z,97645.34
2022-08-20T17:52:11.723Z,97642.91
2022-08-20T17:54:44.805Z,97642.09
2022-08-20T17:57:14.976Z,97652.47
2022-08-20T18:00:01.671Z,97641.25
2022-08-20T18:02:34.406Z,97648.88
2022-08-20T18:05:05.548Z,97654.91
2022-08-20T18:08:14.856Z,97652.66
2022-08-20T18:11:28.227Z,97655.38
2022-08-20T18:14:17.630Z,97659.19
2022-08-20T18:17:09.792Z,97655.31
2022-08-20T18:20:18.263Z,97669.00
2022-08-20T18:23:06.205Z,97661.31
2022-08-20T18:25:54.344Z,97661.03
2022-08-20T18:28:38.649Z,97654.97
2022-08-20T18:31:10.412Z,97666.97
2022-08-20T18:33:42.571Z,97664.47
2022-08-20T18:36:25.188Z,97669.91
2022-08-20T18:39:30.133Z,97663.03
2022-08-20T18:41:59.907Z,97669.84
2022-08-20T18:44:48.006Z,97671.72
2022-08-20T18:47:33.883Z,97670.28
2022-08-20T18:50:16.373Z,97672.16
2022-08-20T18:52:50.466Z,97674.59
2022-08-20T18:55:39.857Z,97680.25
2022-08-20T18:58:12.257Z,97681.00
2022-08-20T19:00:49.646Z,97684.53
2022-08-20T19:03:46.161Z,97680.13
2022-08-20T19:06:28.825Z,97681.75
2022-08-20T19:09:34.297Z,97686.88
2022-08-20T19:12:57.334Z,97694.16
2022-08-20T19:15:26.327Z,97697.09
2022-08-20T19:18:09.954Z,97697.06
2022-08-20T19:20:55.584Z,97706.84
2022-08-20T19:23:27.828Z,97698.34
2022-08-20T19:25:59.777Z,97704.56
2022-08-20T19:28:40.764Z,97709.16
2022-08-20T19:31:19.077Z,97709.41
2022-08-20T19:33:51.592Z,97709.09
2022-08-20T19:36:28.464Z,97716.72
2022-08-20T19:39:03.713Z,97707.09
2022-08-20T19:41:39.948Z,97704.56
2022-08-20T19:44:07.896Z,97699.38
2022-08-20T19:46:44.029Z,97706.69
2022-08-20T19:49:27.379Z,97698.13
2022-08-20T19:52:00.786Z,97698.13
2022-08-20T19:54:29.675Z,97697.50
2022-08-20T19:57:04.670Z,97695.81
2022-08-20T19:59:32.545Z,97697.41
2022-08-20T20:02:20.537Z,97699.25
2022-08-20T20:04:55.085Z,97701.16
2022-08-20T20:07:40.703Z,97698.34
2022-08-20T20:10:22.055Z,97707.03
2022-08-20T20:12:49.890Z,97699.06
2022-08-20T20:15:18.809Z,97698.69
2022-08-20T20:17:46.955Z,97702.72
2022-08-20T20:20:34.965Z,97708.94
2022-08-20T20:23:16.777Z,97706.94
2022-08-20T20:25:49.315Z,97707.69
2022-08-20T20:28:24.333Z,97712.56
2022-08-20T20:30:52.229Z,97713.34
2022-08-20T20:33:32.261Z,97707.31
2022-08-20T20:36:44.972Z,97700.72
2022-08-20T20:39:35.991Z,97697.94
2022-08-20T20:42:10.200Z,97702.69
2022-08-20T20:44:43.745Z,97701.88
2022-08-20T20:47:36.027Z,97701.28
2022-08-20T20:50:10.985Z,97688.41
2022-08-20T20:52:54.635Z,97695.19
2022-08-20T20:55:33.088Z,97690.31
2022-08-20T20:58:02.678Z,97685.41
2022-08-20T21:00:34.364Z,97681.00
2022-08-20T21:03:04.044Z,97692.97
2022-08-20T21:05:32.914Z,97697.00
2022-08-20T21:08:03.998Z,97693.47
2022-08-20T21:10:37.125Z,97696.69
2022-08-20T21:13:08.103Z,97694.63
2022-08-20T21:15:39.009Z,97699.81
2022-08-20T21:18:09.209Z,97702.28
2022-08-20T21:20:37.367Z,97696.28
2022-08-20T21:23:05.292Z,97690.50
2022-08-20T21:25:34.309Z,97697.84
2022-08-20T21:28:02.521Z,97698.91
2022-08-20T21:30:31.964Z,97697.59
2022-08-20T21:33:00.056Z,97696.84
2022-08-20T21:35:28.035Z,97700.91
2022-08-20T21:37:55.802Z,97702.47
2022-08-20T21:40:23.686Z,97706.75
2022-08-20T21:42:56.701Z,97708.28
2022-08-20T21:45:28.466Z,97712.09
2022-08-20T21:47:57.296Z,97703.81
2022-08-20T21:50:25.797Z,97702.06
2022-08-20T21:52:55.264Z,97708.31
2022-08-20T21:55:33.053Z,97703.63
2022-08-20T21:58:04.770Z,97707.09
2022-08-20T22:00:53.519Z,97705.09
2022-08-20T22:03:26.956Z,97714.91
2022-08-20T22:05:55.962Z,97709.13
2022-08-20T22:08:26.082Z,97716.47
2022-08-20T22:10:58.298Z,97709.13
2022-08-20T22:13:31.801Z,97707.16
2022-08-20T22:16:02.515Z,97719.06
2022-08-20T22:18:30.655Z,97715.81
2022-08-20T22:20:59.109Z,97722.31
2022-08-20T22:23:27.544Z,97721.97
2022-08-20T22:25:55.297Z,97724.00
2022-08-20T22:28:23.515Z,97729.34
2022-08-20T22:30:51.352Z,97725.69
2022-08-20T22:33:23.409Z,97723.19
2022-08-20T22:35:56.712Z,97723.13
2022-08-20T22:38:25.805Z,97735.25
2022-08-20T22:40:54.166Z,97731.25
2022-08-20T22:43:23.229Z,97730.56
2022-08-20T22:45:58.276Z,97737.63
2022-08-20T22:48:26.488Z,97732.19
2022-08-20T22:50:54.886Z,97740.00
2022-08-20T22:53:26.187Z,97736.44
2022-08-20T22:55:54.786Z,97741.19
2022-08-20T22:58:30.901Z,97738.13
2022-08-20T23:01:01.201Z,97735.63
2022-08-20T23:03:39.452Z,97733.16
2022-08-20T23:06:09.524Z,97730.69
2022-08-20T23:08:38.173Z,97730.56
2022-08-20T23:11:06.577Z,97731.03
2022-08-20T23:13:34.932Z,97735.88
2022-08-20T23:16:03.405Z,97727.38
2022-08-20T23:18:31.652Z,97727.28
2022-08-20T23:21:00.654Z,97730.69
2022-08-20T23:23:28.563Z,97732.47
2022-08-20T23:25:56.569Z,97725.63
2022-08-20T23:28:26.064Z,97731.88
2022-08-20T23:30:53.988Z,97732.72
2022-08-20T23:33:22.023Z,97729.16
2022-08-20T23:35:50.257Z,97726.94
2022-08-20T23:38:20.434Z,97730.47
2022-08-20T23:40:48.327Z,97729.41
2022-08-20T23:43:18.989Z,97731.19
2022-08-20T23:45:47.163Z,97718.22
2022-08-20T23:48:14.996Z,97720.78
2022-08-20T23:50:42.861Z,97718.53
2022-08-20T23:53:10.776Z,97722.91
2022-08-20T23:55:38.597Z,97711.47
2022-08-20T23:58:06.370Z,97714.41
